createdAt,value
2023-03-29T00:01:00.780Z,66.88
2023-03-29T00:03:28.462Z,66.28
2023-03-29T00:06:02.822Z,65.84
2023-03-29T00:08:32.316Z,66.02
2023-03-29T00:10:59.548Z,65.95
2023-03-29T00:13:27.681Z,67.24
2023-03-29T00:15:55.073Z,67.15
2023-03-29T00:18:22.682Z,66.66
2023-03-29T00:20:56.908Z,66.44
2023-03-29T00:23:25.075Z,67.35
2023-03-29T00:25:54.884Z,69.27
2023-03-29T00:28:22.031Z,67.83
2023-03-29T00:30:50.468Z,68.66
2023-03-29T00:33:22.883Z,68.93
2023-03-29T00:35:53.206Z,69.66
2023-03-29T00:38:19.850Z,70.69
2023-03-29T00:40:47.087Z,70.16
2023-03-29T00:43:15.009Z,69.63
2023-03-29T00:45:41.892Z,69.25
2023-03-29T00:48:12.391Z,69.99
2023-03-29T00:50:45.414Z,71.21
2023-03-29T00:53:17.463Z,70.88
2023-03-29T00:55:55.803Z,70.94
2023-03-29T00:58:31.825Z,70.10
2023-03-29T01:01:08.732Z,69.59
2023-03-29T01:03:46.798Z,69.47
2023-03-29T01:06:18.249Z,68.41
2023-03-29T01:08:50.873Z,67.79
2023-03-29T01:11:22.377Z,68.08
2023-03-29T01:13:58.400Z,68.48
2023-03-29T01:16:28.429Z,68.52
2023-03-29T01:18:58.278Z,68.53
2023-03-29T01:21:32.318Z,68.36
2023-03-29T01:24:20.670Z,68.51
2023-03-29T01:27:15.564Z,68.72
2023-03-29T01:29:49.140Z,69.66
2023-03-29T01:32:25.013Z,69.42
2023-03-29T01:35:10.496Z,70.28
2023-03-29T01:37:41.242Z,69.86
2023-03-29T01:40:08.338Z,70.12
2023-03-29T01:42:43.825Z,70.53
2023-03-29T01:45:41.475Z,70.72
2023-03-29T01:48:22.683Z,70.96
2023-03-29T01:50:56.146Z,71.60
2023-03-29T01:53:36.329Z,70.44
2023-03-29T01:56:20.544Z,70.74
2023-03-29T01:58:52.999Z,70.21
2023-03-29T02:01:28.581Z,70.91
2023-03-29T02:04:02.766Z,71.71
2023-03-29T02:06:34.075Z,71.09
2023-03-29T02:09:01.453Z,71.32
2023-03-29T02:11:29.479Z,70.03
2023-03-29T02:13:59.060Z,71.07
2023-03-29T02:16:25.783Z,69.27
2023-03-29T02:18:56.200Z,70.20
2023-03-29T02:21:34.136Z,70.05
2023-03-29T02:24:06.591Z,70.88
2023-03-29T02:26:33.752Z,71.15
2023-03-29T02:29:00.592Z,71.36
2023-03-29T02:31:51.913Z,72.24
2023-03-29T02:34:38.864Z,72.10
2023-03-29T02:37:12.417Z,71.69
2023-03-29T02:39:39.988Z,72.07
2023-03-29T02:42:09.069Z,71.86
2023-03-29T02:44:40.644Z,72.35
2023-03-29T02:47:16.168Z,71.64
2023-03-29T02:49:43.250Z,71.22
2023-03-29T02:52:14.334Z,71.31
2023-03-29T02:54:43.330Z,71.12
2023-03-29T02:57:11.167Z,70.49
2023-03-29T02:59:38.619Z,70.83
2023-03-29T03:02:05.691Z,70.19
2023-03-29T03:04:35.262Z,71.35
2023-03-29T03:07:02.372Z,70.76
2023-03-29T03:09:28.846Z,71.46
2023-03-29T03:11:55.591Z,72.18
2023-03-29T03:14:22.960Z,71.43
2023-03-29T03:16:50.511Z,71.55
2023-03-29T03:19:17.074Z,71.69
2023-03-29T03:21:44.091Z,70.93
2023-03-29T03:24:10.480Z,69.84
2023-03-29T03:26:38.859Z,69.78
2023-03-29T03:29:06.604Z,69.91
2023-03-29T03:31:54.184Z,69.30
2023-03-29T03:34:39.638Z,68.56
2023-03-29T03:37:06.309Z,68.46
2023-03-29T03:39:34.283Z,69.76
2023-03-29T03:42:02.684Z,68.36
2023-03-29T03:44:29.169Z,68.32
2023-03-29T03:47:13.680Z,67.82
2023-03-29T03:49:42.078Z,67.58
2023-03-29T03:52:08.991Z,67.61
2023-03-29T03:54:35.509Z,68.82
2023-03-29T03:57:24.745Z,67.36
2023-03-29T03:59:52.851Z,67.92
2023-03-29T04:02:39.394Z,67.63
2023-03-29T04:05:08.678Z,67.23
2023-03-29T04:07:38.365Z,67.95
2023-03-29T04:10:22.816Z,67.95
2023-03-29T04:12:52.887Z,68.38
2023-03-29T04:15:20.637Z,68.13
2023-03-29T04:17:59.884Z,68.25
2023-03-29T04:20:52.495Z,68.61
2023-03-29T04:23:22.054Z,69.08
2023-03-29T04:25:49.180Z,68.88
2023-03-29T04:28:41.555Z,68.59
2023-03-29T04:31:21.420Z,69.25
2023-03-29T04:34:03.332Z,69.13
2023-03-29T04:36:29.958Z,69.84
2023-03-29T04:38:56.983Z,69.30
2023-03-29T04:41:27.275Z,69.08
2023-03-29T04:44:08.463Z,70.81
2023-03-29T04:46:35.213Z,70.99
2023-03-29T04:49:13.753Z,70.48
2023-03-29T04:51:47.797Z,71.08
2023-03-29T04:54:17.106Z,71.22
2023-03-29T04:57:02.135Z,69.92
2023-03-29T05:00:15.377Z,70.74
2023-03-29T05:02:57.898Z,70.51
2023-03-29T05:05:25.678Z,69.96
2023-03-29T05:07:53.067Z,70.79
2023-03-29T05:10:23.884Z,71.17
2023-03-29T05:12:54.198Z,71.17
2023-03-29T05:15:22.510Z,70.92
2023-03-29T05:17:49.940Z,70.83
2023-03-29T05:20:17.518Z,70.75
2023-03-29T05:22:47.063Z,71.39
2023-03-29T05:25:26.287Z,71.25
2023-03-29T05:27:53.085Z,71.42
2023-03-29T05:30:19.586Z,71.40
2023-03-29T05:33:02.185Z,71.57
2023-03-29T05:35:29.732Z,71.34
2023-03-29T05:37:58.156Z,71.68
2023-03-29T05:40:26.139Z,72.04
2023-03-29T05:43:12.613Z,72.13
2023-03-29T05:45:39.090Z,72.09
2023-03-29T05:48:05.909Z,72.41
2023-03-29T05:50:33.214Z,72.03
2023-03-29T05:53:00.072Z,72.64
2023-03-29T05:55:27.008Z,73.11
2023-03-29T05:57:53.462Z,72.32
2023-03-29T06:00:25.580Z,72.76
2023-03-29T06:03:13.357Z,73.47
2023-03-29T06:05:56.599Z,73.32
2023-03-29T06:08:23.313Z,73.83
2023-03-29T06:11:04.542Z,73.53
2023-03-29T06:14:06.654Z,72.83
2023-03-29T06:16:36.371Z,73.35
2023-03-29T06:19:03.004Z,73.43
2023-03-29T06:21:31.784Z,73.72
2023-03-29T06:23:59.655Z,73.60
2023-03-29T06:26:29.188Z,73.58
2023-03-29T06:28:56.214Z,73.53
2023-03-29T06:31:23.059Z,74.56
2023-03-29T06:33:51.467Z,74.29
2023-03-29T06:36:36.661Z,74.38
2023-03-29T06:39:04.163Z,74.57
2023-03-29T06:41:51.547Z,74.60
2023-03-29T06:44:32.811Z,74.65
2023-03-29T06:47:05.807Z,74.29
2023-03-29T06:49:32.260Z,74.29
2023-03-29T06:52:14.279Z,74.04
2023-03-29T06:54:41.503Z,73.90
2023-03-29T06:57:08.124Z,73.22
2023-03-29T06:59:35.008Z,73.65
2023-03-29T07:02:18.105Z,73.35
2023-03-29T07:04:48.696Z,73.29
2023-03-29T07:07:22.551Z,73.84
2023-03-29T07:09:55.578Z,73.74
2023-03-29T07:12:41.019Z,73.44
2023-03-29T07:15:09.344Z,73.32
2023-03-29T07:18:03.551Z,73.09
2023-03-29T07:20:31.283Z,72.94
2023-03-29T07:23:05.969Z,73.53
2023-03-29T07:25:33.868Z,72.75
2023-03-29T07:28:00.567Z,73.59
2023-03-29T07:30:31.621Z,73.28
2023-03-29T07:33:10.644Z,73.32
2023-03-29T07:35:43.851Z,73.48
2023-03-29T07:38:10.597Z,73.70
2023-03-29T07:40:41.248Z,73.33
2023-03-29T07:43:34.338Z,73.51
2023-03-29T07:46:05.594Z,73.31
2023-03-29T07:48:36.229Z,73.78
2023-03-29T07:51:06.334Z,73.20
2023-03-29T07:53:41.515Z,73.01
2023-03-29T07:56:22.869Z,72.55
2023-03-29T07:58:54.517Z,72.97
2023-03-29T08:01:21.628Z,72.94
2023-03-29T08:04:00.503Z,72.49
2023-03-29T08:06:47.042Z,73.16
2023-03-29T08:09:13.597Z,72.56
2023-03-29T08:11:42.986Z,72.54
2023-03-29T08:14:18.209Z,72.25
2023-03-29T08:17:07.361Z,71.86
2023-03-29T08:19:39.591Z,72.11
2023-03-29T08:22:08.157Z,71.99
2023-03-29T08:24:55.218Z,72.27
2023-03-29T08:27:25.898Z,71.82
2023-03-29T08:29:52.401Z,71.74
2023-03-29T08:32:18.884Z,71.49
2023-03-29T08:34:46.742Z,71.92
2023-03-29T08:37:26.760Z,71.83
2023-03-29T08:39:55.677Z,71.86
2023-03-29T08:43:01.977Z,71.90
2023-03-29T08:46:01.609Z,72.14
2023-03-29T08:48:31.860Z,71.88
2023-03-29T08:51:05.202Z,72.05
2023-03-29T08:53:42.345Z,71.39
2023-03-29T08:56:24.950Z,71.18
2023-03-29T08:59:19.538Z,71.14
2023-03-29T09:01:50.245Z,70.96
2023-03-29T09:04:22.709Z,71.18
2023-03-29T09:06:59.326Z,71.01
2023-03-29T09:09:34.451Z,71.46
2023-03-29T09:12:22.952Z,71.21
2023-03-29T09:15:11.525Z,71.44
2023-03-29T09:17:56.635Z,70.16
2023-03-29T09:20:33.621Z,69.83
2023-03-29T09:23:25.479Z,70.00
2023-03-29T09:26:45.741Z,69.81
2023-03-29T09:29:58.147Z,69.23
2023-03-29T09:32:55.682Z,68.91
2023-03-29T09:35:39.026Z,68.57
2023-03-29T09:38:11.050Z,68.36
2023-03-29T09:40:44.763Z,68.64
2023-03-29T09:43:28.713Z,68.93
2023-03-29T09:45:58.798Z,68.69
2023-03-29T09:48:27.269Z,69.19
2023-03-29T09:50:57.125Z,69.15
2023-03-29T09:53:24.299Z,69.35
2023-03-29T09:56:11.097Z,69.14
2023-03-29T09:58:48.109Z,68.96
2023-03-29T10:01:20.259Z,69.43
2023-03-29T10:03:53.473Z,69.19
2023-03-29T10:06:24.435Z,69.72
2023-03-29T10:08:58.770Z,69.75
2023-03-29T10:11:40.961Z,69.84
2023-03-29T10:14:33.356Z,69.84
2023-03-29T10:17:00.048Z,68.95
2023-03-29T10:19:34.632Z,69.25
2023-03-29T10:22:05.491Z,69.47
2023-03-29T10:24:31.899Z,69.49
2023-03-29T10:27:01.664Z,69.64
2023-03-29T10:29:36.746Z,69.54
2023-03-29T10:32:14.483Z,69.32
2023-03-29T10:34:41.446Z,69.75
2023-03-29T10:37:10.659Z,69.86
2023-03-29T10:39:39.034Z,69.57
2023-03-29T10:42:08.349Z,69.63
2023-03-29T10:44:36.608Z,70.32
2023-03-29T10:47:13.445Z,70.93
2023-03-29T10:49:42.827Z,71.39
2023-03-29T10:52:09.422Z,71.40
2023-03-29T10:54:36.650Z,72.11
2023-03-29T10:57:09.395Z,72.37
2023-03-29T10:59:47.556Z,72.76
2023-03-29T11:02:14.198Z,72.70
2023-03-29T11:05:07.674Z,72.98
2023-03-29T11:07:41.426Z,72.91
2023-03-29T11:10:20.183Z,73.09
2023-03-29T11:12:52.723Z,72.97
2023-03-29T11:15:46.921Z,73.24
2023-03-29T11:18:22.602Z,73.14
2023-03-29T11:21:13.563Z,73.51
2023-03-29T11:23:59.601Z,73.09
2023-03-29T11:26:53.590Z,72.67
2023-03-29T11:29:23.615Z,73.09
2023-03-29T11:32:04.247Z,72.49
2023-03-29T11:34:43.606Z,72.73
2023-03-29T11:37:25.287Z,72.85
2023-03-29T11:40:29.986Z,72.72
2023-03-29T11:43:00.370Z,72.70
2023-03-29T11:45:35.380Z,73.17
2023-03-29T11:48:04.858Z,72.74
2023-03-29T11:51:03.679Z,72.83
2023-03-29T11:53:39.893Z,72.38
2023-03-29T11:56:13.477Z,72.60
2023-03-29T11:58:44.478Z,72.27
2023-03-29T12:01:17.784Z,72.16
2023-03-29T12:03:49.100Z,72.63
2023-03-29T12:06:40.517Z,71.89
2023-03-29T12:09:22.696Z,72.48
2023-03-29T12:12:09.846Z,72.24
2023-03-29T12:14:49.445Z,72.00
2023-03-29T12:17:20.542Z,72.43
2023-03-29T12:19:55.491Z,72.32
2023-03-29T12:22:22.304Z,72.57
2023-03-29T12:24:52.070Z,72.36
2023-03-29T12:27:31.660Z,72.63
2023-03-29T12:30:33.196Z,72.46
2023-03-29T12:33:21.412Z,72.55
2023-03-29T12:36:38.509Z,72.83
2023-03-29T12:39:24.535Z,72.60
2023-03-29T12:42:26.317Z,72.49
2023-03-29T12:45:40.040Z,72.20
2023-03-29T12:48:07.601Z,72.09
2023-03-29T12:50:36.962Z,72.35
2023-03-29T12:53:25.358Z,72.07
2023-03-29T12:56:09.170Z,71.77
2023-03-29T12:58:38.810Z,71.67
2023-03-29T13:01:30.064Z,71.85
2023-03-29T13:03:59.423Z,72.38
2023-03-29T13:07:02.633Z,72.76
2023-03-29T13:09:53.149Z,71.91
2023-03-29T13:12:26.981Z,71.71
2023-03-29T13:14:57.876Z,72.26
2023-03-29T13:17:30.838Z,72.28
2023-03-29T13:20:19.466Z,71.91
2023-03-29T13:23:17.470Z,72.48
2023-03-29T13:26:09.473Z,72.26
2023-03-29T13:29:16.145Z,72.24
2023-03-29T13:32:01.720Z,72.27
2023-03-29T13:34:46.450Z,71.65
2023-03-29T13:37:21.744Z,71.49
2023-03-29T13:39:51.634Z,72.10
2023-03-29T13:42:23.781Z,72.20
2023-03-29T13:44:51.258Z,72.21
2023-03-29T13:47:43.201Z,72.65
2023-03-29T13:50:33.008Z,73.51
2023-03-29T13:53:05.024Z,74.85
2023-03-29T13:55:38.422Z,74.10
2023-03-29T13:58:37.361Z,74.08
2023-03-29T14:01:13.347Z,73.74
2023-03-29T14:03:44.917Z,73.70
2023-03-29T14:06:15.500Z,74.05
2023-03-29T14:08:44.149Z,73.24
2023-03-29T14:11:24.106Z,73.85
2023-03-29T14:13:55.241Z,74.41
2023-03-29T14:16:21.970Z,74.24
2023-03-29T14:18:51.269Z,74.69
2023-03-29T14:21:19.965Z,75.14
2023-03-29T14:23:53.720Z,75.40
2023-03-29T14:26:23.996Z,75.03
2023-03-29T14:28:52.989Z,75.15
2023-03-29T14:31:35.010Z,75.54
2023-03-29T14:34:04.752Z,75.53
2023-03-29T14:36:33.277Z,75.56
2023-03-29T14:39:08.068Z,75.74
2023-03-29T14:41:37.474Z,75.81
2023-03-29T14:44:06.595Z,76.48
2023-03-29T14:46:34.226Z,76.14
2023-03-29T14:49:02.118Z,76.15
2023-03-29T14:51:31.031Z,76.06
2023-03-29T14:54:00.213Z,76.21
2023-03-29T14:56:27.513Z,76.45
2023-03-29T14:58:56.486Z,76.23
2023-03-29T15:01:25.747Z,76.24
2023-03-29T15:04:11.665Z,75.86
2023-03-29T15:06:40.994Z,75.40
2023-03-29T15:09:14.796Z,75.36
2023-03-29T15:11:41.602Z,75.19
2023-03-29T15:14:14.129Z,74.84
2023-03-29T15:16:43.542Z,74.33
2023-03-29T15:19:16.032Z,74.28
2023-03-29T15:21:43.433Z,74.31
2023-03-29T15:24:31.296Z,73.95
2023-03-29T15:27:13.412Z,73.95
2023-03-29T15:29:42.343Z,74.46
2023-03-29T15:32:36.051Z,74.65
2023-03-29T15:35:09.173Z,74.67
2023-03-29T15:37:36.709Z,74.53
2023-03-29T15:40:09.588Z,74.33
2023-03-29T15:42:36.707Z,73.81
2023-03-29T15:45:05.132Z,74.00
2023-03-29T15:47:31.648Z,74.32
2023-03-29T15:49:58.095Z,74.69
2023-03-29T15:52:24.632Z,74.39
2023-03-29T15:54:51.399Z,74.33
2023-03-29T15:57:18.706Z,74.18
2023-03-29T15:59:45.363Z,74.69
2023-03-29T16:02:16.518Z,74.32
2023-03-29T16:04:43.550Z,74.71
2023-03-29T16:07:13.934Z,74.56
2023-03-29T16:09:40.366Z,74.58
2023-03-29T16:12:06.917Z,74.52
2023-03-29T16:14:33.994Z,74.54
2023-03-29T16:17:01.407Z,74.55
2023-03-29T16:19:29.519Z,74.46
2023-03-29T16:21:57.052Z,74.66
2023-03-29T16:24:26.195Z,74.95
2023-03-29T16:26:55.713Z,75.08
2023-03-29T16:29:23.226Z,75.11
2023-03-29T16:31:50.501Z,75.05
2023-03-29T16:34:19.146Z,74.83
2023-03-29T16:36:47.645Z,75.01
2023-03-29T16:39:14.704Z,75.40
2023-03-29T16:41:42.323Z,74.62
2023-03-29T16:44:15.138Z,75.37
2023-03-29T16:46:42.088Z,75.10
2023-03-29T16:49:13.881Z,75.65
2023-03-29T16:51:40.539Z,75.37
2023-03-29T16:54:07.540Z,75.57
2023-03-29T16:56:36.434Z,75.53
2023-03-29T16:59:03.323Z,76.33
2023-03-29T17:01:30.303Z,76.20
2023-03-29T17:03:57.218Z,76.68
2023-03-29T17:06:24.101Z,76.16
2023-03-29T17:08:50.522Z,76.09
2023-03-29T17:11:17.645Z,75.94
2023-03-29T17:13:44.470Z,76.34
2023-03-29T17:16:11.117Z,76.49
2023-03-29T17:18:37.859Z,76.89
2023-03-29T17:21:05.086Z,76.52
2023-03-29T17:23:31.532Z,76.71
2023-03-29T17:25:57.994Z,76.36
2023-03-29T17:28:24.549Z,76.75
2023-03-29T17:30:51.788Z,76.60
2023-03-29T17:33:22.484Z,77.31
2023-03-29T17:35:49.359Z,77.64
2023-03-29T17:38:15.988Z,77.83
2023-03-29T17:40:42.817Z,77.95
2023-03-29T17:43:09.249Z,78.07
2023-03-29T17:45:36.016Z,77.82
2023-03-29T17:48:04.798Z,77.76
2023-03-29T17:50:32.907Z,77.77
2023-03-29T17:52:59.297Z,77.81
2023-03-29T17:55:26.419Z,77.55
2023-03-29T17:57:53.095Z,77.62
2023-03-29T18:00:20.143Z,78.09
2023-03-29T18:02:46.700Z,77.79
2023-03-29T18:05:13.343Z,78.37
2023-03-29T18:07:39.771Z,78.15
2023-03-29T18:10:07.733Z,78.54
2023-03-29T18:12:34.140Z,78.21
2023-03-29T18:15:00.949Z,78.25
2023-03-29T18:17:27.834Z,78.59
2023-03-29T18:19:54.529Z,78.14
2023-03-29T18:22:21.582Z,78.62
2023-03-29T18:24:49.150Z,78.09
2023-03-29T18:27:16.011Z,78.30
2023-03-29T18:29:43.938Z,78.32
2023-03-29T18:32:11.042Z,78.49
2023-03-29T18:34:39.006Z,78.57
2023-03-29T18:37:05.980Z,78.45
2023-03-29T18:39:34.498Z,78.18
2023-03-29T18:42:01.665Z,78.55
2023-03-29T18:44:28.641Z,78.75
2023-03-29T18:46:55.238Z,78.33
2023-03-29T18:49:21.626Z,78.39
2023-03-29T18:51:49.946Z,78.26
2023-03-29T18:54:17.538Z,78.03
2023-03-29T18:56:44.298Z,78.27
2023-03-29T18:59:10.723Z,78.89
2023-03-29T19:01:37.306Z,78.86
2023-03-29T19:04:03.951Z,78.40
2023-03-29T19:06:30.572Z,78.49
2023-03-29T19:08:59.461Z,78.98
2023-03-29T19:11:28.815Z,79.14
2023-03-29T19:13:55.509Z,79.17
2023-03-29T19:16:22.484Z,79.50
2023-03-29T19:18:49.252Z,79.41
2023-03-29T19:21:15.812Z,79.21
2023-03-29T19:23:42.263Z,79.32
2023-03-29T19:26:10.611Z,79.74
2023-03-29T19:28:37.270Z,79.19
2023-03-29T19:31:04.548Z,79.56
2023-03-29T19:33:32.272Z,79.60
2023-03-29T19:35:58.946Z,79.53
2023-03-29T19:38:25.660Z,79.95
2023-03-29T19:40:52.588Z,80.11
2023-03-29T19:43:20.616Z,79.78
2023-03-29T19:45:48.948Z,79.89
2023-03-29T19:48:22.401Z,79.58
2023-03-29T19:50:50.153Z,80.37
2023-03-29T19:53:16.778Z,80.60
2023-03-29T19:55:45.123Z,80.27
2023-03-29T19:58:12.317Z,80.20
2023-03-29T20:00:39.043Z,80.34
2023-03-29T20:03:09.207Z,80.51
2023-03-29T20:05:38.478Z,80.92
2023-03-29T20:08:04.949Z,80.81
2023-03-29T20:10:31.725Z,80.76
2023-03-29T20:12:58.521Z,81.13
2023-03-29T20:15:28.615Z,80.52
2023-03-29T20:17:59.427Z,80.69
2023-03-29T20:20:26.716Z,80.62
2023-03-29T20:22:57.914Z,81.13
2023-03-29T20:25:24.904Z,81.09
2023-03-29T20:27:51.390Z,81.13
2023-03-29T20:30:17.984Z,81.23
2023-03-29T20:32:44.589Z,81.09
2023-03-29T20:35:11.683Z,81.69
2023-03-29T20:37:38.107Z,81.51
2023-03-29T20:40:05.986Z,81.62
2023-03-29T20:42:34.224Z,81.75
2023-03-29T20:45:01.461Z,81.83
2023-03-29T20:47:29.356Z,81.88
2023-03-29T20:49:56.773Z,81.93
2023-03-29T20:52:24.327Z,81.89
2023-03-29T20:54:51.269Z,81.98
2023-03-29T20:57:20.484Z,81.44
2023-03-29T20:59:49.066Z,82.07
2023-03-29T21:02:20.753Z,82.11
2023-03-29T21:04:52.127Z,81.96
2023-03-29T21:07:19.894Z,82.03
2023-03-29T21:09:48.246Z,82.16
2023-03-29T21:12:14.765Z,82.28
2023-03-29T21:14:41.560Z,82.60
2023-03-29T21:17:09.288Z,82.52
2023-03-29T21:19:37.998Z,82.85
2023-03-29T21:22:04.956Z,82.56
2023-03-29T21:24:33.037Z,83.04
2023-03-29T21:27:00.476Z,83.16
2023-03-29T21:29:27.250Z,83.36
2023-03-29T21:31:54.014Z,83.89
2023-03-29T21:34:20.658Z,83.61
2023-03-29T21:36:47.222Z,84.12
2023-03-29T21:39:14.223Z,83.78
2023-03-29T21:41:40.649Z,84.08
2023-03-29T21:44:07.262Z,84.25
2023-03-29T21:46:33.782Z,84.63
2023-03-29T21:49:00.518Z,85.11
2023-03-29T21:51:27.025Z,84.93
2023-03-29T21:53:53.528Z,85.26
2023-03-29T21:56:19.978Z,85.17
2023-03-29T21:58:46.697Z,85.91
2023-03-29T22:01:13.235Z,85.36
2023-03-29T22:03:39.841Z,85.88
2023-03-29T22:06:09.308Z,85.45
2023-03-29T22:08:38.975Z,85.65
2023-03-29T22:11:08.634Z,86.15
2023-03-29T22:13:35.422Z,86.22
2023-03-29T22:16:06.351Z,85.91
2023-03-29T22:18:42.862Z,85.98
2023-03-29T22:21:15.942Z,85.88
2023-03-29T22:23:44.212Z,86.23
2023-03-29T22:26:12.179Z,86.08
2023-03-29T22:28:39.939Z,86.45
2023-03-29T22:31:09.539Z,86.51
2023-03-29T22:33:37.202Z,86.63
2023-03-29T22:36:13.041Z,86.56
2023-03-29T22:38:39.756Z,86.71
2023-03-29T22:41:06.496Z,86.41
2023-03-29T22:43:33.015Z,86.48
2023-03-29T22:45:59.468Z,86.30
2023-03-29T22:48:26.068Z,86.47
2023-03-29T22:50:52.583Z,86.73
2023-03-29T22:53:19.241Z,86.61
2023-03-29T22:55:46.151Z,86.60
2023-03-29T22:58:12.776Z,86.91
2023-03-29T23:00:39.183Z,87.16
2023-03-29T23:03:06.536Z,87.22
2023-03-29T23:05:33.480Z,86.71
2023-03-29T23:08:00.153Z,87.27
2023-03-29T23:10:28.871Z,86.92
2023-03-29T23:13:08.443Z,87.16
2023-03-29T23:15:42.720Z,87.35
2023-03-29T23:18:13.016Z,87.09
2023-03-29T23:20:40.683Z,87.12
2023-03-29T23:23:08.471Z,87.07
2023-03-29T23:25:35.196Z,86.76
2023-03-29T23:28:01.970Z,86.73
2023-03-29T23:30:29.680Z,87.14
2023-03-29T23:32:58.282Z,86.98
2023-03-29T23:35:24.881Z,86.92
2023-03-29T23:37:51.491Z,87.12
2023-03-29T23:40:18.004Z,87.18
2023-03-29T23:42:45.757Z,86.90
2023-03-29T23:45:15.611Z,87.16
2023-03-29T23:47:44.094Z,87.49
2023-03-29T23:50:13.234Z,87.14
2023-03-29T23:52:41.413Z,87.11
2023-03-29T23:55:12.415Z,87.07
2023-03-29T23:57:38.899Z,87.06
